Fulton County Airport Brown Field
KFTY : now visible

Airfield :











YOU CAN JOIN US ON...

 
LOGIN :

Register | Disclaimer

   EN    FR    IT 

 









Legend :    VFR   Marginal VFR   IFR   Intensive IFR   Very Intensive IFR
Visi :
Ceiling :
>= 8 km
>= 3000ft
5 to 8 km
1000 to 3000 ft
1500m to 5 km
500 to 1000 ft
800 to 1500m
200 to 500 ft
< 800m
< 200 ft
Symbols :   Thunderstorms  Fog  Heavy snow  Heavy precipitations  Wind > 20 kt






- Airport Elevation : 841 ft


KFTY - Fulton County Brown Field

CURRENT METAR :
  • 280408Z 00000KT 10SM OVC028 18/17 A3002 RMK AO2 T01830172

EXPIRED METARs :
  • 280353Z 02003KT 10SM BKN030 BKN036 18/17 A3002 RMK AO2 RAE49 SLP158 P0005 T01830172
  • 280308Z 05005KT 6SM RA BR BKN030 OVC041 18/17 A3002 RMK AO2 P0003 T01830167
  • 280253Z 36003KT 7SM -RA FEW020 OVC028 18/17 A3004 RMK AO2 SLP165 P0003 60010 T01830172 53020
  • 280153Z 31006KT 4SM -RA BR FEW008 OVC017 19/17 A3001 RMK AO2 RAB14 SLP155 P0007 T01890172

TAF KFTY
Valid from the 28 at 04:00 until the 29 at 00:00 UTC


280336Z 2804/2824 09005KT P6SM -SHRA SCT015 BKN030 OVC050
TEMPO 2804/2808 6SM -SHRA SCT007 BKN015
FM280800 10004KT 6SM -SHRA BR BKN005 OVC010
FM281500 19004KT P6SM -SHRA SCT009 BKN015
FM281800 20006KT P6SM VCSH BKN035
FM282200 21005KT P6SM VCSH SCT050 SCT250
KZTL FIR / North America



MET'MAP, your aeronautical weather chart ! - Copyright ORBIFLY December 2007 - Disclaimer

ORBIFLY MET'MAP TEAM :

Programming & Development : Alexandra Zaïnal
Concept & original design : Baudouin d'Aumeries
Assistance for programming : Marc-Olivier Méhu
Technical & hardware support : Manuel Goepfert

Contact : metmap@orbifly.com




SOURCES & CREDITS :

   NOAA       Earth
Advisory